sensor_id;sensor_type;location;lat;lon;timestamp;P1;P2;P0
24012;PMS7003;12220;50.194;18.948;2024-01-15T00:00:19;23;16;10
24012;PMS7003;12220;50.194;18.948;2024-01-15T00:02:25;24;21;12
24012;PMS7003;12220;50.194;18.948;2024-01-15T00:04:27;20;18;13
24012;PMS7003;12220;50.194;18.948;2024-01-15T00:06:28;22;21;12
24012;PMS7003;12220;50.194;18.948;2024-01-15T00:08:34;24;16;9
24012;PMS7003;12220;50.194;18.948;2024-01-15T00:10:35;21;16;9
24012;PMS7003;12220;50.194;18.948;2024-01-15T00:12:36;22;18;13
24012;PMS7003;12220;50.194;18.948;2024-01-15T00:14:38;20;19;12
24012;PMS7003;12220;50.194;18.948;2024-01-15T00:16:49;20;16;11
24012;PMS7003;12220;50.194;18.948;2024-01-15T00:18:51;20;17;10
24012;PMS7003;12220;50.194;18.948;2024-01-15T00:20:53;18;15;11
24012;PMS7003;12220;50.194;18.948;2024-01-15T00:22:54;18;13;12
24012;PMS7003;12220;50.194;18.948;2024-01-15T00:25:04;17;17;12
24012;PMS7003;12220;50.194;18.948;2024-01-15T00:27:06;29;23;16
24012;PMS7003;12220;50.194;18.948;2024-01-15T00:29:07;16;12;10
24012;PMS7003;12220;50.194;18.948;2024-01-15T00:31:09;13;13;9
24012;PMS7003;12220;50.194;18.948;2024-01-15T00:33:19;22;16;11
24012;PMS7003;12220;50.194;18.948;2024-01-15T00:35:20;18;18;12
24012;PMS7003;12220;50.194;18.948;2024-01-15T00:37:22;18;13;10
24012;PMS7003;12220;50.194;18.948;2024-01-15T00:39:23;23;14;9
24012;PMS7003;12220;50.194;18.948;2024-01-15T00:41:34;14;12;8
24012;PMS7003;12220;50.194;18.948;2024-01-15T00:43:35;12;10;7
24012;PMS7003;12220;50.194;18.948;2024-01-15T00:45:37;18;16;10
24012;PMS7003;12220;50.194;18.948;2024-01-15T00:47:38;13;10;8
24012;PMS7003;12220;50.194;18.948;2024-01-15T00:49:49;14;12;9
24012;PMS7003;12220;50.194;18.948;2024-01-15T00:51:50;15;11;7
24012;PMS7003;12220;50.194;18.948;2024-01-15T00:53:52;12;12;7
24012;PMS7003;12220;50.194;18.948;2024-01-15T00:55:56;14;10;7
24012;PMS7003;12220;50.194;18.948;2024-01-15T00:58:04;16;12;9
24012;PMS7003;12220;50.194;18.948;2024-01-15T01:00:06;18;16;9
24012;PMS7003;12220;50.194;18.948;2024-01-15T01:02:09;14;13;9
24012;PMS7003;12220;50.194;18.948;2024-01-15T01:04:10;13;12;9
24012;PMS7003;12220;50.194;18.948;2024-01-15T01:06:19;12;11;8
24012;PMS7003;12220;50.194;18.948;2024-01-15T01:08:21;8;8;5
24012;PMS7003;12220;50.194;18.948;2024-01-15T01:10:22;8;8;6
24012;PMS7003;12220;50.194;18.948;2024-01-15T01:12:24;17;13;9
24012;PMS7003;12220;50.194;18.948;2024-01-15T01:14:34;18;15;11
24012;PMS7003;12220;50.194;18.948;2024-01-15T01:16:36;14;12;9
24012;PMS7003;12220;50.194;18.948;2024-01-15T01:18:39;17;16;11
24012;PMS7003;12220;50.194;18.948;2024-01-15T01:20:40;16;16;9
24012;PMS7003;12220;50.194;18.948;2024-01-15T01:22:49;16;14;10
24012;PMS7003;12220;50.194;18.948;2024-01-15T01:24:51;16;12;9
24012;PMS7003;12220;50.194;18.948;2024-01-15T01:26:52;14;14;8
24012;PMS7003;12220;50.194;18.948;2024-01-15T01:28:53;16;13;8
24012;PMS7003;12220;50.194;18.948;2024-01-15T01:31:04;17;15;10
24012;PMS7003;12220;50.194;18.948;2024-01-15T01:33:06;22;18;9
24012;PMS7003;12220;50.194;18.948;2024-01-15T01:35:07;10;10;8
24012;PMS7003;12220;50.194;18.948;2024-01-15T01:37:12;15;13;11
24012;PMS7003;12220;50.194;18.948;2024-01-15T01:39:20;14;12;9
24012;PMS7003;12220;50.194;18.948;2024-01-15T01:41:21;17;13;9
24012;PMS7003;12220;50.194;18.948;2024-01-15T01:43:24;13;11;7
24012;PMS7003;12220;50.194;18.948;2024-01-15T01:45:26;10;8;8
24012;PMS7003;12220;50.194;18.948;2024-01-15T01:47:35;14;11;8
24012;PMS7003;12220;50.194;18.948;2024-01-15T01:49:36;13;12;9
24012;PMS7003;12220;50.194;18.948;2024-01-15T01:51:38;18;14;9
24012;PMS7003;12220;50.194;18.948;2024-01-15T01:53:40;14;13;9
24012;PMS7003;12220;50.194;18.948;2024-01-15T01:55:50;17;10;6
24012;PMS7003;12220;50.194;18.948;2024-01-15T01:57:52;17;10;5
24012;PMS7003;12220;50.194;18.948;2024-01-15T01:59:54;19;13;10
24012;PMS7003;12220;50.194;18.948;2024-01-15T02:01:56;11;7;6
24012;PMS7003;12220;50.194;18.948;2024-01-15T02:04:05;10;10;8
24012;PMS7003;12220;50.194;18.948;2024-01-15T02:06:07;14;11;6
24012;PMS7003;12220;50.194;18.948;2024-01-15T02:08:09;14;10;6
24012;PMS7003;12220;50.194;18.948;2024-01-15T02:10:10;8;4;4
24012;PMS7003;12220;50.194;18.948;2024-01-15T02:12:20;12;12;7
24012;PMS7003;12220;50.194;18.948;2024-01-15T02:14:21;9;9;6
24012;PMS7003;12220;50.194;18.948;2024-01-15T02:16:23;12;6;5
24012;PMS7003;12220;50.194;18.948;2024-01-15T02:18:24;12;10;7
24012;PMS7003;12220;50.194;18.948;2024-01-15T02:20:35;11;10;7
24012;PMS7003;12220;50.194;18.948;2024-01-15T02:22:37;7;7;4
24012;PMS7003;12220;50.194;18.948;2024-01-15T02:24:38;12;12;8
24012;PMS7003;12220;50.194;18.948;2024-01-15T02:26:40;11;9;6
24012;PMS7003;12220;50.194;18.948;2024-01-15T02:28:50;13;12;9
24012;PMS7003;12220;50.194;18.948;2024-01-15T02:30:52;14;11;8
24012;PMS7003;12220;50.194;18.948;2024-01-15T02:32:53;11;9;7
24012;PMS7003;12220;50.194;18.948;2024-01-15T02:34:55;12;11;8
24012;PMS7003;12220;50.194;18.948;2024-01-15T02:37:05;11;9;7
24012;PMS7003;12220;50.194;18.948;2024-01-15T02:39:06;9;7;5
24012;PMS7003;12220;50.194;18.948;2024-01-15T02:41:09;10;7;5
24012;PMS7003;12220;50.194;18.948;2024-01-15T02:43:10;8;8;7
24012;PMS7003;12220;50.194;18.948;2024-01-15T02:45:21;12;9;7
24012;PMS7003;12220;50.194;18.948;2024-01-15T02:47:23;14;9;6
24012;PMS7003;12220;50.194;18.948;2024-01-15T02:49:24;8;8;6
24012;PMS7003;12220;50.194;18.948;2024-01-15T02:51:25;13;11;6
24012;PMS7003;12220;50.194;18.948;2024-01-15T02:53:36;8;8;6
24012;PMS7003;12220;50.194;18.948;2024-01-15T02:55:37;13;11;8
24012;PMS7003;12220;50.194;18.948;2024-01-15T02:57:39;11;9;7
24012;PMS7003;12220;50.194;18.948;2024-01-15T02:59:40;13;9;8
24012;PMS7003;12220;50.194;18.948;2024-01-15T03:01:50;11;10;7
24012;PMS7003;12220;50.194;18.948;2024-01-15T03:03:52;9;6;5
24012;PMS7003;12220;50.194;18.948;2024-01-15T03:05:56;8;8;6
24012;PMS7003;12220;50.194;18.948;2024-01-15T03:07:57;9;8;6
24012;PMS7003;12220;50.194;18.948;2024-01-15T03:10:06;12;8;5
24012;PMS7003;12220;50.194;18.948;2024-01-15T03:12:07;8;6;5
24012;PMS7003;12220;50.194;18.948;2024-01-15T03:14:09;9;8;5
24012;PMS7003;12220;50.194;18.948;2024-01-15T03:16:10;7;6;6
24012;PMS7003;12220;50.194;18.948;2024-01-15T03:18:21;6;5;4
24012;PMS7003;12220;50.194;18.948;2024-01-15T03:20:22;9;7;6
24012;PMS7003;12220;50.194;18.948;2024-01-15T03:22:23;9;9;7
24012;PMS7003;12220;50.194;18.948;2024-01-15T03:24:25;11;7;5
24012;PMS7003;12220;50.194;18.948;2024-01-15T03:26:36;7;7;5
24012;PMS7003;12220;50.194;18.948;2024-01-15T03:28:40;6;6;4
24012;PMS7003;12220;50.194;18.948;2024-01-15T03:30:42;11;9;8
24012;PMS7003;12220;50.194;18.948;2024-01-15T03:32:43;8;8;4
24012;PMS7003;12220;50.194;18.948;2024-01-15T03:34:51;6;6;5
24012;PMS7003;12220;50.194;18.948;2024-01-15T03:36:53;7;7;6
24012;PMS7003;12220;50.194;18.948;2024-01-15T03:38:54;9;6;5
24012;PMS7003;12220;50.194;18.948;2024-01-15T03:40:55;18;9;6
24012;PMS7003;12220;50.194;18.948;2024-01-15T03:43:06;8;7;6
24012;PMS7003;12220;50.194;18.948;2024-01-15T03:45:07;11;6;4
24012;PMS7003;12220;50.194;18.948;2024-01-15T03:47:09;10;8;7
24012;PMS7003;12220;50.194;18.948;2024-01-15T03:49:10;10;10;7
24012;PMS7003;12220;50.194;18.948;2024-01-15T03:51:21;7;7;5
24012;PMS7003;12220;50.194;18.948;2024-01-15T03:53:22;9;6;4
24012;PMS7003;12220;50.194;18.948;2024-01-15T03:55:24;7;7;5
24012;PMS7003;12220;50.194;18.948;2024-01-15T03:57:25;11;7;6
24012;PMS7003;12220;50.194;18.948;2024-01-15T03:59:36;7;6;4
24012;PMS7003;12220;50.194;18.948;2024-01-15T04:01:37;8;5;4
24012;PMS7003;12220;50.194;18.948;2024-01-15T04:03:39;11;10;7
24012;PMS7003;12220;50.194;18.948;2024-01-15T04:05:40;9;8;6
24012;PMS7003;12220;50.194;18.948;2024-01-15T04:07:51;8;8;6
24012;PMS7003;12220;50.194;18.948;2024-01-15T04:09:52;10;7;5
24012;PMS7003;12220;50.194;18.948;2024-01-15T04:11:54;19;9;6
24012;PMS7003;12220;50.194;18.948;2024-01-15T04:13:55;12;11;7
24012;PMS7003;12220;50.194;18.948;2024-01-15T04:16:06;4;4;1
24012;PMS7003;12220;50.194;18.948;2024-01-15T04:18:08;9;9;6
24012;PMS7003;12220;50.194;18.948;2024-01-15T04:20:09;8;5;4
24012;PMS7003;12220;50.194;18.948;2024-01-15T04:22:11;13;9;6
24012;PMS7003;12220;50.194;18.948;2024-01-15T04:24:21;7;6;4
24012;PMS7003;12220;50.194;18.948;2024-01-15T04:26:23;8;7;5
24012;PMS7003;12220;50.194;18.948;2024-01-15T04:28:24;8;7;5
24012;PMS7003;12220;50.194;18.948;2024-01-15T04:30:25;8;8;6
24012;PMS7003;12220;50.194;18.948;2024-01-15T04:32:36;5;5;4
24012;PMS7003;12220;50.194;18.948;2024-01-15T04:34:38;8;8;6
24012;PMS7003;12220;50.194;18.948;2024-01-15T04:36:39;9;8;7
24012;PMS7003;12220;50.194;18.948;2024-01-15T04:38:42;11;8;6
24012;PMS7003;12220;50.194;18.948;2024-01-15T04:40:51;11;8;6
24012;PMS7003;12220;50.194;18.948;2024-01-15T04:42:53;7;7;5
24012;PMS7003;12220;50.194;18.948;2024-01-15T04:44:55;10;8;5
24012;PMS7003;12220;50.194;18.948;2024-01-15T04:46:57;12;9;6
24012;PMS7003;12220;50.194;18.948;2024-01-15T04:49:06;9;6;4
24012;PMS7003;12220;50.194;18.948;2024-01-15T04:51:10;12;6;5
24012;PMS7003;12220;50.194;18.948;2024-01-15T04:53:12;13;12;7
24012;PMS7003;12220;50.194;18.948;2024-01-15T04:55:13;9;8;4
24012;PMS7003;12220;50.194;18.948;2024-01-15T04:57:22;12;12;8
24012;PMS7003;12220;50.194;18.948;2024-01-15T04:59:23;5;4;3
24012;PMS7003;12220;50.194;18.948;2024-01-15T05:01:24;11;9;6
24012;PMS7003;12220;50.194;18.948;2024-01-15T05:03:26;13;10;8
24012;PMS7003;12220;50.194;18.948;2024-01-15T05:05:37;8;6;5
24012;PMS7003;12220;50.194;18.948;2024-01-15T05:07:38;13;8;5
24012;PMS7003;12220;50.194;18.948;2024-01-15T05:09:39;9;7;5
24012;PMS7003;12220;50.194;18.948;2024-01-15T05:11:41;6;4;4
24012;PMS7003;12220;50.194;18.948;2024-01-15T05:13:52;8;8;6
24012;PMS7003;12220;50.194;18.948;2024-01-15T05:15:53;8;7;5
24012;PMS7003;12220;50.194;18.948;2024-01-15T05:17:54;11;8;7
24012;PMS7003;12220;50.194;18.948;2024-01-15T05:19:56;5;5;5
24012;PMS7003;12220;50.194;18.948;2024-01-15T05:22:07;10;8;6
24012;PMS7003;12220;50.194;18.948;2024-01-15T05:24:08;7;7;5
24012;PMS7003;12220;50.194;18.948;2024-01-15T05:26:09;13;11;8
24012;PMS7003;12220;50.194;18.948;2024-01-15T05:28:11;15;10;6
24012;PMS7003;12220;50.194;18.948;2024-01-15T05:30:22;11;10;7
24012;PMS7003;12220;50.194;18.948;2024-01-15T05:32:23;13;12;7
24012;PMS7003;12220;50.194;18.948;2024-01-15T05:34:25;9;8;7
24012;PMS7003;12220;50.194;18.948;2024-01-15T05:36:26;11;9;6
24012;PMS7003;12220;50.194;18.948;2024-01-15T05:38:37;9;9;7
24012;PMS7003;12220;50.194;18.948;2024-01-15T05:40:39;13;10;8
24012;PMS7003;12220;50.194;18.948;2024-01-15T05:42:41;6;5;5
24012;PMS7003;12220;50.194;18.948;2024-01-15T05:44:42;24;15;7
24012;PMS7003;12220;50.194;18.948;2024-01-15T05:46:52;11;9;6
24012;PMS7003;12220;50.194;18.948;2024-01-15T05:48:54;11;9;7
24012;PMS7003;12220;50.194;18.948;2024-01-15T05:50:55;11;9;5
24012;PMS7003;12220;50.194;18.948;2024-01-15T05:52:57;16;11;6
24012;PMS7003;12220;50.194;18.948;2024-01-15T05:55:07;12;10;6
24012;PMS7003;12220;50.194;18.948;2024-01-15T05:57:10;10;9;7
24012;PMS7003;12220;50.194;18.948;2024-01-15T05:59:11;14;9;7
24012;PMS7003;12220;50.194;18.948;2024-01-15T06:01:13;15;11;6
24012;PMS7003;12220;50.194;18.948;2024-01-15T06:03:22;11;9;7
24012;PMS7003;12220;50.194;18.948;2024-01-15T06:05:24;14;12;9
24012;PMS7003;12220;50.194;18.948;2024-01-15T06:07:25;16;14;7
24012;PMS7003;12220;50.194;18.948;2024-01-15T06:09:26;12;12;8
24012;PMS7003;12220;50.194;18.948;2024-01-15T06:11:37;10;8;7
24012;PMS7003;12220;50.194;18.948;2024-01-15T06:13:39;10;7;6
24012;PMS7003;12220;50.194;18.948;2024-01-15T06:15:40;9;8;7
24012;PMS7003;12220;50.194;18.948;2024-01-15T06:17:41;14;8;5
24012;PMS7003;12220;50.194;18.948;2024-01-15T06:19:52;9;9;6
24012;PMS7003;12220;50.194;18.948;2024-01-15T06:21:54;15;12;7
24012;PMS7003;12220;50.194;18.948;2024-01-15T06:23:55;12;9;7
24012;PMS7003;12220;50.194;18.948;2024-01-15T06:25:59;12;11;8
24012;PMS7003;12220;50.194;18.948;2024-01-15T06:28:08;14;10;7
24012;PMS7003;12220;50.194;18.948;2024-01-15T06:30:10;13;11;7
24012;PMS7003;12220;50.194;18.948;2024-01-15T06:32:12;15;11;8
24012;PMS7003;12220;50.194;18.948;2024-01-15T06:34:14;14;10;7
24012;PMS7003;12220;50.194;18.948;2024-01-15T06:36:23;12;9;6
24012;PMS7003;12220;50.194;18.948;2024-01-15T06:38:24;11;11;7
24012;PMS7003;12220;50.194;18.948;2024-01-15T06:40:27;14;11;7
24012;PMS7003;12220;50.194;18.948;2024-01-15T06:42:28;17;14;7
24012;PMS7003;12220;50.194;18.948;2024-01-15T06:44:38;13;12;6
24012;PMS7003;12220;50.194;18.948;2024-01-15T06:46:42;10;9;5
24012;PMS7003;12220;50.194;18.948;2024-01-15T06:48:44;10;10;8
24012;PMS7003;12220;50.194;18.948;2024-01-15T06:50:47;19;11;8
24012;PMS7003;12220;50.194;18.948;2024-01-15T06:52:53;15;13;11
24012;PMS7003;12220;50.194;18.948;2024-01-15T06:54:54;14;12;7
24012;PMS7003;12220;50.194;18.948;2024-01-15T06:56:55;23;17;11
24012;PMS7003;12220;50.194;18.948;2024-01-15T06:58:57;17;14;9
24012;PMS7003;12220;50.194;18.948;2024-01-15T07:01:08;7;7;6
24012;PMS7003;12220;50.194;18.948;2024-01-15T07:03:12;14;9;8
24012;PMS7003;12220;50.194;18.948;2024-01-15T07:05:13;14;13;10
24012;PMS7003;12220;50.194;18.948;2024-01-15T07:07:15;25;17;11
24012;PMS7003;12220;50.194;18.948;2024-01-15T07:09:23;19;14;10
24012;PMS7003;12220;50.194;18.948;2024-01-15T07:11:24;20;15;9
24012;PMS7003;12220;50.194;18.948;2024-01-15T07:13:26;11;10;7
24012;PMS7003;12220;50.194;18.948;2024-01-15T07:15:27;14;12;11
24012;PMS7003;12220;50.194;18.948;2024-01-15T07:17:38;18;11;8
24012;PMS7003;12220;50.194;18.948;2024-01-15T07:19:40;18;10;7
24012;PMS7003;12220;50.194;18.948;2024-01-15T07:21:41;16;14;11
24012;PMS7003;12220;50.194;18.948;2024-01-15T07:23:43;18;15;11
24012;PMS7003;12220;50.194;18.948;2024-01-15T07:28:15;11;11;6
24012;PMS7003;12220;50.194;18.948;2024-01-15T07:30:16;13;13;9
24012;PMS7003;12220;50.194;18.948;2024-01-15T07:32:18;12;10;5
24012;PMS7003;12220;50.194;18.948;2024-01-15T07:34:21;14;13;10
24012;PMS7003;12220;50.194;18.948;2024-01-15T07:36:30;14;13;9
24012;PMS7003;12220;50.194;18.948;2024-01-15T07:38:32;22;11;7
24012;PMS7003;12220;50.194;18.948;2024-01-15T07:40:34;14;13;10
24012;PMS7003;12220;50.194;18.948;2024-01-15T07:42:35;14;13;9
24012;PMS7003;12220;50.194;18.948;2024-01-15T07:44:45;15;15;8
24012;PMS7003;12220;50.194;18.948;2024-01-15T07:46:47;19;17;11
24012;PMS7003;12220;50.194;18.948;2024-01-15T07:48:48;19;14;9
24012;PMS7003;12220;50.194;18.948;2024-01-15T07:50:59;13;12;7
24012;PMS7003;12220;50.194;18.948;2024-01-15T07:53:00;18;17;10
24012;PMS7003;12220;50.194;18.948;2024-01-15T07:55:02;13;10;7
24012;PMS7003;12220;50.194;18.948;2024-01-15T07:57:07;14;11;8
24012;PMS7003;12220;50.194;18.948;2024-01-15T07:59:08;16;15;10
24012;PMS7003;12220;50.194;18.948;2024-01-15T08:01:18;23;17;12
24012;PMS7003;12220;50.194;18.948;2024-01-15T08:03:19;17;15;11
24012;PMS7003;12220;50.194;18.948;2024-01-15T08:05:20;15;14;9
24012;PMS7003;12220;50.194;18.948;2024-01-15T08:07:22;17;14;10
24012;PMS7003;12220;50.194;18.948;2024-01-15T08:09:33;22;20;12
24012;PMS7003;12220;50.194;18.948;2024-01-15T08:11:35;18;17;12
24012;PMS7003;12220;50.194;18.948;2024-01-15T08:13:36;24;19;14
24012;PMS7003;12220;50.194;18.948;2024-01-15T08:15:38;12;12;8
24012;PMS7003;12220;50.194;18.948;2024-01-15T08:17:48;16;13;10
24012;PMS7003;12220;50.194;18.948;2024-01-15T08:19:49;18;16;11
24012;PMS7003;12220;50.194;18.948;2024-01-15T08:21:51;26;16;10
24012;PMS7003;12220;50.194;18.948;2024-01-15T08:23:52;14;14;11
24012;PMS7003;12220;50.194;18.948;2024-01-15T08:26:03;20;14;10
24012;PMS7003;12220;50.194;18.948;2024-01-15T08:28:07;15;14;11
24012;PMS7003;12220;50.194;18.948;2024-01-15T08:30:09;19;15;10
24012;PMS7003;12220;50.194;18.948;2024-01-15T08:32:11;21;14;11
24012;PMS7003;12220;50.194;18.948;2024-01-15T08:34:18;19;16;10
24012;PMS7003;12220;50.194;18.948;2024-01-15T08:36:20;20;14;10
24012;PMS7003;12220;50.194;18.948;2024-01-15T08:38:22;12;12;9
24012;PMS7003;12220;50.194;18.948;2024-01-15T08:40:24;23;21;13
24012;PMS7003;12220;50.194;18.948;2024-01-15T08:42:33;18;17;12
24012;PMS7003;12220;50.194;18.948;2024-01-15T08:44:35;21;14;11
24012;PMS7003;12220;50.194;18.948;2024-01-15T08:46:36;21;19;12
24012;PMS7003;12220;50.194;18.948;2024-01-15T08:48:38;20;15;12
24012;PMS7003;12220;50.194;18.948;2024-01-15T08:50:48;20;16;10
24012;PMS7003;12220;50.194;18.948;2024-01-15T08:52:50;19;17;12
24012;PMS7003;12220;50.194;18.948;2024-01-15T08:54:52;19;14;11
24012;PMS7003;12220;50.194;18.948;2024-01-15T08:56:53;17;15;10
24012;PMS7003;12220;50.194;18.948;2024-01-15T08:59:03;17;16;11
24012;PMS7003;12220;50.194;18.948;2024-01-15T09:01:05;26;17;10
24012;PMS7003;12220;50.194;18.948;2024-01-15T09:03:06;18;16;10
24012;PMS7003;12220;50.194;18.948;2024-01-15T09:05:09;15;14;8
24012;PMS7003;12220;50.194;18.948;2024-01-15T09:07:26;17;17;11
24012;PMS7003;12220;50.194;18.948;2024-01-15T09:09:27;21;15;9
24012;PMS7003;12220;50.194;18.948;2024-01-15T09:11:29;34;24;17
24012;PMS7003;12220;50.194;18.948;2024-01-15T09:13:34;19;18;12
24012;PMS7003;12220;50.194;18.948;2024-01-15T09:15:35;20;20;14
24012;PMS7003;12220;50.194;18.948;2024-01-15T09:17:37;24;19;13
24012;PMS7003;12220;50.194;18.948;2024-01-15T09:19:39;25;20;12
24012;PMS7003;12220;50.194;18.948;2024-01-15T09:21:40;34;25;17
24012;PMS7003;12220;50.194;18.948;2024-01-15T09:23:50;28;25;14
24012;PMS7003;12220;50.194;18.948;2024-01-15T09:25:51;30;24;15
24012;PMS7003;12220;50.194;18.948;2024-01-15T09:27:53;23;20;13
24012;PMS7003;12220;50.194;18.948;2024-01-15T09:29:54;26;25;17
24012;PMS7003;12220;50.194;18.948;2024-01-15T09:32:06;36;24;13
24012;PMS7003;12220;50.194;18.948;2024-01-15T09:34:08;33;26;16
24012;PMS7003;12220;50.194;18.948;2024-01-15T09:36:09;36;33;19
24012;PMS7003;12220;50.194;18.948;2024-01-15T09:38:16;26;25;15
24012;PMS7003;12220;50.194;18.948;2024-01-15T09:40:21;34;27;18
24012;PMS7003;12220;50.194;18.948;2024-01-15T09:42:23;37;28;18
24012;PMS7003;12220;50.194;18.948;2024-01-15T09:44:26;32;25;16
24012;PMS7003;12220;50.194;18.948;2024-01-15T09:46:33;33;25;15
24012;PMS7003;12220;50.194;18.948;2024-01-15T09:48:36;23;22;13
24012;PMS7003;12220;50.194;18.948;2024-01-15T09:50:39;39;29;17
24012;PMS7003;12220;50.194;18.948;2024-01-15T09:52:40;27;23;14
24012;PMS7003;12220;50.194;18.948;2024-01-15T09:54:43;26;24;13
24012;PMS7003;12220;50.194;18.948;2024-01-15T09:56:52;25;23;15
24012;PMS7003;12220;50.194;18.948;2024-01-15T09:58:55;30;26;15
24012;PMS7003;12220;50.194;18.948;2024-01-15T10:00:58;34;28;16
24012;PMS7003;12220;50.194;18.948;2024-01-15T10:03:02;32;25;13
24012;PMS7003;12220;50.194;18.948;2024-01-15T10:05:08;36;30;16
24012;PMS7003;12220;50.194;18.948;2024-01-15T10:07:10;28;23;17
24012;PMS7003;12220;50.194;18.948;2024-01-15T10:09:20;29;24;14
24012;PMS7003;12220;50.194;18.948;2024-01-15T10:11:21;23;22;11
24012;PMS7003;12220;50.194;18.948;2024-01-15T10:13:25;26;24;13
24012;PMS7003;12220;50.194;18.948;2024-01-15T10:15:29;37;24;16
24012;PMS7003;12220;50.194;18.948;2024-01-15T10:17:39;26;22;14
24012;PMS7003;12220;50.194;18.948;2024-01-15T10:19:41;20;20;14
24012;PMS7003;12220;50.194;18.948;2024-01-15T10:21:44;35;19;12
24012;PMS7003;12220;50.194;18.948;2024-01-15T10:23:48;25;22;16
24012;PMS7003;12220;50.194;18.948;2024-01-15T10:25:50;31;22;14
24012;PMS7003;12220;50.194;18.948;2024-01-15T10:27:58;27;22;15
24012;PMS7003;12220;50.194;18.948;2024-01-15T10:30:04;29;27;17
24012;PMS7003;12220;50.194;18.948;2024-01-15T10:32:10;27;22;14
24012;PMS7003;12220;50.194;18.948;2024-01-15T10:34:15;38;27;17
24012;PMS7003;12220;50.194;18.948;2024-01-15T10:36:18;30;25;17
24012;PMS7003;12220;50.194;18.948;2024-01-15T10:38:20;37;29;15
24012;PMS7003;12220;50.194;18.948;2024-01-15T10:40:23;26;24;14
24012;PMS7003;12220;50.194;18.948;2024-01-15T10:42:24;25;24;16
24012;PMS7003;12220;50.194;18.948;2024-01-15T10:44:26;21;19;12
24012;PMS7003;12220;50.194;18.948;2024-01-15T10:46:35;28;23;15
24012;PMS7003;12220;50.194;18.948;2024-01-15T10:48:38;22;20;14
24012;PMS7003;12220;50.194;18.948;2024-01-15T10:50:40;24;22;14
24012;PMS7003;12220;50.194;18.948;2024-01-15T10:52:43;23;20;11
24012;PMS7003;12220;50.194;18.948;2024-01-15T10:54:50;29;25;13
24012;PMS7003;12220;50.194;18.948;2024-01-15T10:56:52;26;23;14
24012;PMS7003;12220;50.194;18.948;2024-01-15T10:58:55;27;22;12
24012;PMS7003;12220;50.194;18.948;2024-01-15T11:00:57;27;20;13
24012;PMS7003;12220;50.194;18.948;2024-01-15T11:03:08;17;17;13
24012;PMS7003;12220;50.194;18.948;2024-01-15T11:05:11;26;19;10
24012;PMS7003;12220;50.194;18.948;2024-01-15T11:07:21;25;19;12
24012;PMS7003;12220;50.194;18.948;2024-01-15T11:09:24;23;20;16
24012;PMS7003;12220;50.194;18.948;2024-01-15T11:11:26;31;23;14
24012;PMS7003;12220;50.194;18.948;2024-01-15T11:20:05;30;21;13
24012;PMS7003;12220;50.194;18.948;2024-01-15T11:22:08;24;19;12
24012;PMS7003;12220;50.194;18.948;2024-01-15T11:24:12;24;20;14
24012;PMS7003;12220;50.194;18.948;2024-01-15T11:30:49;28;27;15
24012;PMS7003;12220;50.194;18.948;2024-01-15T11:32:51;22;18;13
24012;PMS7003;12220;50.194;18.948;2024-01-15T11:34:53;24;22;14
24012;PMS7003;12220;50.194;18.948;2024-01-15T11:37:02;27;25;15
24012;PMS7003;12220;50.194;18.948;2024-01-15T11:41:17;21;19;14
24012;PMS7003;12220;50.194;18.948;2024-01-15T11:43:28;34;23;16
24012;PMS7003;12220;50.194;18.948;2024-01-15T11:45:33;29;22;14
24012;PMS7003;12220;50.194;18.948;2024-01-15T11:47:44;30;26;17
24012;PMS7003;12220;50.194;18.948;2024-01-15T11:52:06;29;25;16
24012;PMS7003;12220;50.194;18.948;2024-01-15T11:54:10;35;26;16
24012;PMS7003;12220;50.194;18.948;2024-01-15T11:56:14;31;24;15
24012;PMS7003;12220;50.194;18.948;2024-01-15T11:58:17;35;29;19
24012;PMS7003;12220;50.194;18.948;2024-01-15T12:00:19;25;25;17
24012;PMS7003;12220;50.194;18.948;2024-01-15T12:02:24;27;24;16
24012;PMS7003;12220;50.194;18.948;2024-01-15T12:04:25;28;20;14
24012;PMS7003;12220;50.194;18.948;2024-01-15T12:06:27;29;25;17
24012;PMS7003;12220;50.194;18.948;2024-01-15T12:08:28;23;23;15
24012;PMS7003;12220;50.194;18.948;2024-01-15T12:10:38;31;24;17
24012;PMS7003;12220;50.194;18.948;2024-01-15T12:14:56;28;21;15
24012;PMS7003;12220;50.194;18.948;2024-01-15T12:16:58;32;26;14
24012;PMS7003;12220;50.194;18.948;2024-01-15T12:19:00;28;24;15
24012;PMS7003;12220;50.194;18.948;2024-01-15T12:21:03;28;25;16
24012;PMS7003;12220;50.194;18.948;2024-01-15T12:23:05;27;22;16
24012;PMS7003;12220;50.194;18.948;2024-01-15T12:25:06;25;20;14
24012;PMS7003;12220;50.194;18.948;2024-01-15T12:27:16;27;22;14
24012;PMS7003;12220;50.194;18.948;2024-01-15T12:29:18;28;20;15
24012;PMS7003;12220;50.194;18.948;2024-01-15T12:31:19;26;23;14
24012;PMS7003;12220;50.194;18.948;2024-01-15T12:33:21;37;23;13
24012;PMS7003;12220;50.194;18.948;2024-01-15T12:35:33;31;24;14
24012;PMS7003;12220;50.194;18.948;2024-01-15T12:37:35;26;24;16
24012;PMS7003;12220;50.194;18.948;2024-01-15T12:39:37;27;23;14
24012;PMS7003;12220;50.194;18.948;2024-01-15T12:41:39;27;23;15
24012;PMS7003;12220;50.194;18.948;2024-01-15T12:43:47;30;19;11
24012;PMS7003;12220;50.194;18.948;2024-01-15T12:45:49;21;19;13
24012;PMS7003;12220;50.194;18.948;2024-01-15T12:47:52;26;19;13
24012;PMS7003;12220;50.194;18.948;2024-01-15T12:49:54;22;20;13
24012;PMS7003;12220;50.194;18.948;2024-01-15T12:52:02;23;22;16
24012;PMS7003;12220;50.194;18.948;2024-01-15T12:54:03;30;26;17
24012;PMS7003;12220;50.194;18.948;2024-01-15T12:57:02;20;16;12
24012;PMS7003;12220;50.194;18.948;2024-01-15T12:59:04;20;18;14
24012;PMS7003;12220;50.194;18.948;2024-01-15T13:01:06;23;22;15
24012;PMS7003;12220;50.194;18.948;2024-01-15T13:03:17;26;17;13
24012;PMS7003;12220;50.194;18.948;2024-01-15T13:05:19;17;15;8
24012;PMS7003;12220;50.194;18.948;2024-01-15T13:07:21;24;23;13
24012;PMS7003;12220;50.194;18.948;2024-01-15T13:09:23;27;20;14
24012;PMS7003;12220;50.194;18.948;2024-01-15T13:11:33;27;19;14
24012;PMS7003;12220;50.194;18.948;2024-01-15T13:13:34;18;15;13
24012;PMS7003;12220;50.194;18.948;2024-01-15T13:15:36;24;21;14
24012;PMS7003;12220;50.194;18.948;2024-01-15T13:17:38;25;20;14
24012;PMS7003;12220;50.194;18.948;2024-01-15T13:19:48;24;21;14
24012;PMS7003;12220;50.194;18.948;2024-01-15T13:21:49;29;20;13
24012;PMS7003;12220;50.194;18.948;2024-01-15T13:23:53;22;21;12
24012;PMS7003;12220;50.194;18.948;2024-01-15T13:25:55;20;16;11
24012;PMS7003;12220;50.194;18.948;2024-01-15T13:28:03;24;22;15
24012;PMS7003;12220;50.194;18.948;2024-01-15T13:30:06;22;14;9
24012;PMS7003;12220;50.194;18.948;2024-01-15T13:32:08;28;24;13
24012;PMS7003;12220;50.194;18.948;2024-01-15T13:34:18;25;21;14